AirNav   Air Wisconsin Up To $57,000 Bonus
 
 1689 users online  

65WA Wissler's Airport
Tenino, Washington, USA

GOING TO TENINO?


FAA INFORMATION EFFECTIVE 04 NOVEMBER 2021

Location

FAA Identifier: 65WA
Lat/Long: 46-50-25.3600N 122-54-58.4810W
46-50.422667N 122-54.974683W
46.8403778,-122.9162447
(estimated)
Elevation: 255 ft. / 78 m (estimated)
Variation: 20E (1985)
From city: 3 miles W of TENINO, WA
Time zone: UTC -7 (UTC -8 during Standard Time)
Zip code: 98589

Airport Operations

Airport use: Private use. Permission required prior to landing
Control tower: no
ARTCC: SEATTLE CENTER
FSS: SEATTLE FLIGHT SERVICE STATION
Attendance: UNATNDD
Wind indicator: yes
Segmented circle: no

Airport Communications

WX ASOS at OLM (8 nm N): 135.725 (360-754-0781)
WX AWOS-3 at CLS (10 nm S): 118.025 (360-740-5164)

Nearby radio navigation aids

VOR radial/distance  VOR name  Freq  Var
OLMr165/7.9OLYMPIA VORTAC113.4019E

Airport Services

Runway Information

Runway 6/24

Dimensions: 1300 x 100 ft. / 396 x 30 m
Surface: turf
RUNWAY 6  RUNWAY 24
Traffic pattern: leftleft
Obstructions: none3 ft. fence, 2 ft. from runway

Airport Ownership and Management from official FAA records

Ownership: Privately-owned
Owner: SUSIE WISSLER BREKHUS
16923 MELVILLE ST SE
TENINO, WA 98589
Phone 360-264-4311
Manager: SUSIE WISSLER BREKHUS
16923 MELVILLE ST SE
TENINO, WA 98589
Phone 360-264-4311

Additional Remarks

FOR CD CTC SEATTLE APCH AT 206-214-4794.

Instrument Procedures

There are no published instrument procedures at 65WA.

Some nearby airports with instrument procedures:

KOLM - Olympia Regional Airport (8 nm N)
KCLS - Chehalis-Centralia Airport (10 nm S)
KGRF - Gray Army Airfield (Joint Base Lewis-McChord) (20 nm NE)
KTDO - Ed Carlson Memorial Field - South Lewis County Airport (22 nm S)
KTCM - McChord Field Airport (Joint Base Lewis-McChord) (25 nm NE)
 
Loc | Ops | Rwys | IFR | FBO | Links
Com | Nav | Svcs | Stats | Notes
Area around 65WA (Wissler's Airport)
 
Road maps at: MapQuest Bing Google
 
Aerial photo
No photo
 
Sectional chart

 
Airport distance calculator
Flying to Wissler's Airport? Find the distance to fly.

From to 65WA

Sunrise and sunset
Times for 30-Nov-2021
 Local
(UTC-8)
 Zulu
(UTC)
Morning civil twilight07:0215:02
Sunrise07:3615:36
Sunset16:2500:25
Evening civil twilight16:5900:59

Current date and time
Zulu (UTC)  30-Nov-2021 19:33:27
Local (UTC-8)  30-Nov-2021 11:33:27
 
METAR
KOLM 
8nm N 
301854Z 19009KT 2SM -RA BR BKN008 BKN016 OVC028 11/10 A3024 RMK AO2 SLP242 P0004 T01110100
KCLS 
10nm S 
301915Z AUTO 18009G14KT 3SM -RA BKN031 BKN037 11/11 A3026 RMK AO2
KGRF 
20nm NE 
301908Z 15011KT 10SM -RA FEW017 BKN030 OVC035 11/10 A3023 RMK AO2A SLP241 $
TAF
KOLM 
8nm N 
301827Z 3018/0118 21007KT 2SM -RA BR FEW015 BKN025 OVC035 FM302200 22008KT 5SM -RA OVC012 FM010700 21007KT 3SM BR VCSH OVC007
KGRF 
20nm NE 
301300Z 3013/0119 20009KT 9999 -SHRA SCT010 OVC020 QNH3014INS BECMG 3015/3016 20010G15KT 9999 -SHRA BKN020 QNH3016INS BECMG 3022/3023 20009KT 9999 -SHRA BKN020 QNH3020INS BECMG 3023/3024 20009KT 9999 NSW BKN030 QNH3015INS TX11/3022Z TN10/3013Z
NOTAMs
Click for the latest NOTAMs
NOTAMs are issued by the DoD/FAA and will open in a separate window not controlled by AirNav.

 

 
 

Would you like to see your business listed on this page?

 If your business provides an interesting product or service to pilots, flight crews, aircraft, or users of the Wissler's Airport, you should consider listing it here.  To start the listing process, click on the button below
 
Add a business
 

Other Pages about Wissler's Airport

Update a link
 
Copyright © AirNav, LLC. All rights reserved. Privacy Policy  Contact